Time,TemperatureF,DewpointF,PressureIn,WindDirection,WindDirectionDegrees,WindSpeedMPH,WindSpeedGustMPH,Humidity,HourlyPrecipIn,Conditions,Clouds,dailyrainin,SoftwareType,DateUTC
2013-05-12 00:01:00,68.5,67.9,29.87,South,180,1.7,2.2,98,0.00,CLR,,0.00,WeatherDisplay:10.37,2013-05-12 04:01:00,
2013-05-12 00:06:00,68.4,67.8,29.87,WSW,248,3.5,3.5,98,0.00,CLR,,0.00,WeatherDisplay:10.37,2013-05-12 04:06:00,
2013-05-12 00:11:00,68.4,67.8,29.87,WSW,248,4.6,4.6,98,0.00,CLR,,0.00,WeatherDisplay:10.37,2013-05-12 04:11:00,
2013-05-12 00:16:00,68.4,67.8,29.87,WSW,248,3.5,3.5,98,0.00,CLR,,0.00,WeatherDisplay:10.37,2013-05-12 04:16:00,
2013-05-12 00:21:00,68.4,67.8,29.87,South,180,3.5,3.5,98,0.00,CLR,,0.00,WeatherDisplay:10.37,2013-05-12 04:21:00,
2013-05-12 00:26:00,68.4,67.8,29.87,SSW,202,3.5,3.5,98,0.00,CLR,,0.00,WeatherDisplay:10.37,2013-05-12 04:26:00,
2013-05-12 00:31:00,68.2,67.6,29.86,SW,225,4.6,4.6,98,0.00,CLR,,0.00,WeatherDisplay:10.37,2013-05-12 04:31:00,
2013-05-12 00:36:00,68.2,67.6,29.86,SW,225,4.0,4.0,98,0.00,CLR,,0.00,WeatherDisplay:10.37,2013-05-12 04:36:00,
2013-05-12 00:41:00,68.2,67.6,29.85,SSE,158,2.3,2.3,98,0.00,CLR,,0.00,WeatherDisplay:10.37,2013-05-12 04:41:00,
2013-05-12 00:46:00,68.2,67.6,29.85,SSE,158,3.5,3.5,98,0.00,CLR,,0.00,WeatherDisplay:10.37,2013-05-12 04:46:00,
2013-05-12 00:51:00,68.4,67.8,29.85,East,90,2.3,0.0,98,0.00,CLR,,0.00,WeatherDisplay:10.37,2013-05-12 04:51:00,
2013-05-12 00:56:00,68.4,67.8,29.85,SW,225,2.5,2.5,98,0.00,CLR,,0.00,WeatherDisplay:10.37,2013-05-12 04:56:00,
2013-05-12 01:01:00,68.4,67.8,29.85,ESE,112,3.5,3.5,98,0.00,CLR,,0.00,WeatherDisplay:10.37,2013-05-12 05:01:00,
2013-05-12 01:06:00,68.5,67.9,29.84,West,270,0.0,0.0,98,0.00,CLR,,0.00,WeatherDisplay:10.37,2013-05-12 05:06:00,
2013-05-12 01:11:00,68.5,67.9,29.84,NNE,22,0.0,0.0,98,0.00,CLR,,0.00,WeatherDisplay:10.37,2013-05-12 05:11:00,
2013-05-12 01:16:00,68.5,67.9,29.85,ESE,112,3.3,3.3,98,0.00,CLR,,0.00,WeatherDisplay:10.37,2013-05-12 05:16:00,
2013-05-12 01:21:00,68.5,67.9,29.85,East,90,2.3,2.3,98,0.00,CLR,,0.00,WeatherDisplay:10.37,2013-05-12 05:21:00,
2013-05-12 01:26:00,68.4,67.8,29.84,SSE,158,0.0,0.0,98,0.00,CLR,,0.00,WeatherDisplay:10.37,2013-05-12 05:26:00,
2013-05-12 01:31:00,68.4,67.8,29.84,SSW,202,1.1,1.1,98,0.00,CLR,,0.00,WeatherDisplay:10.37,2013-05-12 05:31:00,
2013-05-12 01:36:00,68.4,67.8,29.84,ENE,68,1.1,1.1,98,0.00,CLR,,0.00,WeatherDisplay:10.37,2013-05-12 05:36:00,
2013-05-12 01:41:00,68.4,67.8,29.84,ESE,112,2.3,0.0,98,0.00,CLR,,0.00,WeatherDisplay:10.37,2013-05-12 05:41:00,
2013-05-12 01:46:00,68.4,67.8,29.84,SW,225,4.0,4.0,98,0.00,CLR,,0.00,WeatherDisplay:10.37,2013-05-12 05:46:00,
2013-05-12 01:51:00,68.4,67.8,29.84,WSW,248,2.3,2.3,98,0.00,CLR,,0.00,WeatherDisplay:10.37,2013-05-12 05:51:00,
2013-05-12 01:56:00,68.4,67.8,29.84,WSW,248,2.3,2.3,98,0.00,CLR,,0.00,WeatherDisplay:10.37,2013-05-12 05:56:00,
2013-05-12 02:01:00,68.4,67.8,29.84,South,180,5.8,5.8,98,0.00,CLR,,0.00,WeatherDisplay:10.37,2013-05-12 06:01:00,
2013-05-12 02:06:00,68.4,67.8,29.84,WNW,292,3.5,3.5,98,0.00,CLR,,0.00,WeatherDisplay:10.37,2013-05-12 06:06:00,
2013-05-12 02:11:00,68.4,67.8,29.84,SE,135,2.3,0.0,98,0.00,CLR,,0.00,WeatherDisplay:10.37,2013-05-12 06:11:00,
2013-05-12 02:16:00,68.4,67.8,29.84,ESE,112,2.5,2.5,98,0.00,CLR,,0.00,WeatherDisplay:10.37,2013-05-12 06:16:00,
2013-05-12 02:21:00,68.4,67.8,29.84,East,90,3.3,3.3,98,0.00,CLR,,0.00,WeatherDisplay:10.37,2013-05-12 06:21:00,
2013-05-12 02:26:00,68.4,67.8,29.84,WSW,248,4.0,4.0,98,0.00,CLR,,0.00,WeatherDisplay:10.37,2013-05-12 06:26:00,
2013-05-12 02:31:00,68.5,67.9,29.84,SSW,202,3.5,3.5,98,0.00,CLR,,0.00,WeatherDisplay:10.37,2013-05-12 06:31:00,
2013-05-12 02:36:00,68.5,67.9,29.84,SW,225,4.8,4.8,98,0.00,CLR,,0.00,WeatherDisplay:10.37,2013-05-12 06:36:00,
2013-05-12 02:41:00,68.5,67.9,29.83,West,270,3.5,3.5,98,0.00,CLR,,0.00,WeatherDisplay:10.37,2013-05-12 06:41:00,
2013-05-12 02:46:00,68.5,67.9,29.83,NE,45,0.0,0.0,98,0.00,CLR,,0.00,WeatherDisplay:10.37,2013-05-12 06:46:00,
2013-05-12 02:51:00,68.5,67.9,29.83,ENE,68,2.3,2.3,98,0.00,CLR,,0.00,WeatherDisplay:10.37,2013-05-12 06:51:00,
2013-05-12 02:56:00,68.5,67.9,29.83,NNW,338,2.5,2.5,98,0.00,CLR,,0.00,WeatherDisplay:10.37,2013-05-12 06:56:00,
2013-05-12 03:01:00,68.7,68.1,29.83,SW,225,3.5,3.5,98,0.00,CLR,,0.00,WeatherDisplay:10.37,2013-05-12 07:01:00,
2013-05-12 03:06:00,68.7,68.1,29.83,West,270,2.5,2.5,98,0.00,CLR,,0.00,WeatherDisplay:10.37,2013-05-12 07:06:00,
2013-05-12 03:11:00,68.7,68.1,29.83,WNW,292,4.8,4.8,98,0.00,CLR,,0.00,WeatherDisplay:10.37,2013-05-12 07:11:00,
2013-05-12 03:16:00,68.7,68.1,29.82,SW,225,3.5,3.5,98,0.00,CLR,,0.00,WeatherDisplay:10.37,2013-05-12 07:16:00,
2013-05-12 03:21:00,68.7,68.1,29.82,South,180,2.3,2.3,98,0.00,CLR,,0.00,WeatherDisplay:10.37,2013-05-12 07:21:00,
2013-05-12 03:26:00,68.7,68.1,29.82,West,270,4.6,4.6,98,0.00,CLR,,0.00,WeatherDisplay:10.37,2013-05-12 07:26:00,
2013-05-12 03:31:00,68.9,68.3,29.82,South,180,3.5,3.5,98,0.00,CLR,,0.00,WeatherDisplay:10.37,2013-05-12 07:31:00,
2013-05-12 03:37:00,68.9,68.3,29.82,NNE,22,3.5,0.0,98,0.00,CLR,,0.00,WeatherDisplay:10.37,2013-05-12 07:37:00,
2013-05-12 03:42:00,68.9,68.3,29.82,SW,225,4.0,4.0,98,0.00,CLR,,0.00,WeatherDisplay:10.37,2013-05-12 07:42:00,
2013-05-12 03:47:00,68.9,68.3,29.82,SW,225,4.8,4.8,98,0.00,CLR,,0.00,WeatherDisplay:10.37,2013-05-12 07:47:00,
2013-05-12 03:52:00,68.9,68.3,29.82,WNW,292,1.1,0.0,98,0.00,CLR,,0.00,WeatherDisplay:10.37,2013-05-12 07:52:00,
2013-05-12 03:57:00,68.9,68.3,29.82,West,270,3.5,3.5,98,0.00,CLR,,0.00,WeatherDisplay:10.37,2013-05-12 07:57:00,
2013-05-12 04:02:00,68.9,68.3,29.82,WSW,248,4.0,4.0,98,0.00,CLR,,0.00,WeatherDisplay:10.37,2013-05-12 08:02:00,
2013-05-12 04:07:00,68.9,68.3,29.81,SW,225,4.0,4.0,98,0.00,CLR,,0.00,WeatherDisplay:10.37,2013-05-12 08:07:00,
2013-05-12 04:12:00,69.1,68.5,29.81,West,270,4.0,4.0,98,0.00,CLR,,0.00,WeatherDisplay:10.37,2013-05-12 08:12:00,
2013-05-12 04:17:00,69.1,68.5,29.81,West,270,3.5,3.5,98,0.00,CLR,,0.00,WeatherDisplay:10.37,2013-05-12 08:17:00,
2013-05-12 04:22:00,69.1,68.5,29.81,SSW,202,2.5,2.5,98,0.00,CLR,,0.00,WeatherDisplay:10.37,2013-05-12 08:22:00,
2013-05-12 04:27:00,69.1,68.5,29.79,SSW,202,1.7,1.7,98,0.00,CLR,,0.00,WeatherDisplay:10.37,2013-05-12 08:27:00,
2013-05-12 04:32:00,69.1,68.5,29.79,SW,225,3.5,3.5,98,0.00,CLR,,0.00,WeatherDisplay:10.37,2013-05-12 08:32:00,
2013-05-12 04:37:00,69.1,68.5,29.62,SSW,202,1.1,-999.0,98,-99.99,,,0.00,Acu-Link.com,2013-05-12 08:37:00,
2013-05-12 04:42:00,69.1,68.5,29.80,North,360,2.3,2.3,98,0.00,CLR,,0.00,WeatherDisplay:10.37,2013-05-12 08:42:00,
2013-05-12 04:47:00,69.1,68.5,29.80,South,180,2.5,2.5,98,0.00,CLR,,0.00,WeatherDisplay:10.37,2013-05-12 08:47:00,
2013-05-12 04:52:00,69.1,68.5,29.79,SSW,202,2.3,2.3,98,0.00,CLR,,0.00,WeatherDisplay:10.37,2013-05-12 08:52:00,
2013-05-12 04:57:00,68.9,68.3,29.79,WSW,248,2.5,2.5,98,0.00,CLR,,0.00,WeatherDisplay:10.37,2013-05-12 08:57:00,
2013-05-12 05:02:00,68.9,68.3,29.80,SSW,202,3.5,3.5,98,0.00,CLR,,0.00,WeatherDisplay:10.37,2013-05-12 09:02:00,
2013-05-12 05:07:00,68.9,68.3,29.80,SSW,202,2.3,2.3,98,0.00,CLR,,0.00,WeatherDisplay:10.37,2013-05-12 09:07:00,
2013-05-12 05:12:00,68.9,68.3,29.80,SSW,202,2.5,2.5,98,0.00,CLR,,0.00,WeatherDisplay:10.37,2013-05-12 09:12:00,
2013-05-12 05:17:00,68.9,68.3,29.80,SSW,202,3.5,3.5,98,0.00,CLR,,0.00,WeatherDisplay:10.37,2013-05-12 09:17:00,
2013-05-12 05:22:00,68.9,68.3,29.80,SW,225,1.1,1.3,98,0.00,CLR,,0.00,WeatherDisplay:10.37,2013-05-12 09:22:00,
2013-05-12 05:27:00,68.9,68.3,29.80,SSW,202,1.1,1.3,98,0.00,CLR,,0.00,WeatherDisplay:10.37,2013-05-12 09:27:00,
2013-05-12 05:32:00,68.9,68.3,29.80,SSW,202,3.3,3.3,98,0.00,CLR,,0.00,WeatherDisplay:10.37,2013-05-12 09:32:00,
2013-05-12 05:37:00,68.9,68.3,29.80,East,90,3.5,3.5,98,0.00,CLR,,0.00,WeatherDisplay:10.37,2013-05-12 09:37:00,
2013-05-12 05:42:00,68.9,68.3,29.80,East,90,0.0,0.0,98,0.00,CLR,,0.00,WeatherDisplay:10.37,2013-05-12 09:42:00,
2013-05-12 05:47:00,68.9,68.3,29.80,SSW,202,1.1,1.1,98,0.00,CLR,,0.00,WeatherDisplay:10.37,2013-05-12 09:47:00,
2013-05-12 05:52:00,68.9,68.3,29.81,SSE,158,0.0,0.0,98,0.00,CLR,,0.00,WeatherDisplay:10.37,2013-05-12 09:52:00,
2013-05-12 05:57:00,68.9,68.3,29.81,SSE,158,0.0,0.0,98,0.00,CLR,,0.00,WeatherDisplay:10.37,2013-05-12 09:57:00,
2013-05-12 06:02:00,68.9,68.3,29.81,SSE,158,0.0,0.0,98,0.00,CLR,,0.00,WeatherDisplay:10.37,2013-05-12 10:02:00,
2013-05-12 06:07:00,68.9,68.3,29.80,SSE,158,2.3,2.3,98,0.00,CLR,,0.00,WeatherDisplay:10.37,2013-05-12 10:07:00,
2013-05-12 06:12:00,68.9,68.3,29.80,SSE,158,0.0,0.0,98,0.00,CLR,,0.00,WeatherDisplay:10.37,2013-05-12 10:12:00,
2013-05-12 06:17:00,68.9,68.3,29.80,SSE,158,0.0,0.0,98,0.00,CLR,,0.00,WeatherDisplay:10.37,2013-05-12 10:17:00,
2013-05-12 06:22:00,68.9,68.3,29.80,SSE,158,0.0,0.0,98,0.00,CLR,,0.00,WeatherDisplay:10.37,2013-05-12 10:22:00,
2013-05-12 06:27:00,68.9,68.3,29.80,SW,225,0.0,0.0,98,0.00,CLR,,0.00,WeatherDisplay:10.37,2013-05-12 10:27:00,
2013-05-12 06:32:00,68.9,68.3,29.80,SW,225,0.0,0.0,98,0.00,CLR,,0.00,WeatherDisplay:10.37,2013-05-12 10:32:00,
2013-05-12 06:37:00,68.7,68.1,29.80,SW,225,0.0,0.0,98,0.00,CLR,,0.00,WeatherDisplay:10.37,2013-05-12 10:37:00,
2013-05-12 06:42:00,68.7,68.1,29.80,SW,225,0.0,0.0,98,0.00,CLR,,0.00,WeatherDisplay:10.37,2013-05-12 10:42:00,
2013-05-12 06:47:00,68.7,68.1,29.80,SW,225,0.0,0.0,98,0.00,CLR,,0.00,WeatherDisplay:10.37,2013-05-12 10:47:00,
2013-05-12 06:52:00,68.7,68.1,29.80,SW,225,0.0,0.0,98,0.00,CLR,,0.00,WeatherDisplay:10.37,2013-05-12 10:52:00,
2013-05-12 06:57:00,68.7,68.1,29.80,SW,225,0.0,0.0,98,0.00,CLR,,0.00,WeatherDisplay:10.37,2013-05-12 10:57:00,
2013-05-12 07:02:00,68.7,68.1,29.81,SW,225,0.0,0.0,98,0.00,CLR,,0.00,WeatherDisplay:10.37,2013-05-12 11:02:00,
2013-05-12 07:07:00,68.7,68.1,29.81,SW,225,0.0,0.0,98,0.00,CLR,,0.00,WeatherDisplay:10.37,2013-05-12 11:07:00,
2013-05-12 07:12:00,68.7,68.1,29.81,SW,225,0.0,0.0,98,0.00,CLR,,0.00,WeatherDisplay:10.37,2013-05-12 11:12:00,
2013-05-12 07:17:00,68.7,68.1,29.82,SW,225,0.0,0.0,98,0.00,CLR,,0.00,WeatherDisplay:10.37,2013-05-12 11:17:00,
2013-05-12 07:22:00,68.7,68.1,29.82,SW,225,0.0,0.0,98,0.00,CLR,,0.00,WeatherDisplay:10.37,2013-05-12 11:22:00,
2013-05-12 07:27:00,68.9,68.3,29.83,SW,225,0.0,0.0,98,0.00,CLR,,0.00,WeatherDisplay:10.37,2013-05-12 11:27:00,
2013-05-12 07:32:00,68.9,68.3,29.83,SW,225,0.0,0.0,98,0.00,CLR,,0.00,WeatherDisplay:10.37,2013-05-12 11:32:00,
2013-05-12 07:37:00,69.3,68.7,29.83,SW,225,0.0,0.0,98,0.00,CLR,,0.00,WeatherDisplay:10.37,2013-05-12 11:37:00,
2013-05-12 07:42:00,69.6,69.0,29.82,SW,225,0.0,0.0,98,0.00,CLR,,0.00,WeatherDisplay:10.37,2013-05-12 11:42:00,
2013-05-12 07:47:00,70.0,69.4,29.82,SW,225,0.0,0.0,98,0.00,CLR,,0.00,WeatherDisplay:10.37,2013-05-12 11:47:00,
2013-05-12 07:52:00,70.0,69.4,29.82,West,270,0.0,0.0,98,0.00,CLR,,0.00,WeatherDisplay:10.37,2013-05-12 11:52:00,
2013-05-12 07:57:00,70.3,69.7,29.82,West,270,0.0,0.0,98,0.00,CLR,,0.00,WeatherDisplay:10.37,2013-05-12 11:57:00,
2013-05-12 08:02:00,70.5,67.7,29.82,WNW,292,3.5,3.5,91,0.00,CLR,,0.00,WeatherDisplay:10.37,2013-05-12 12:02:00,
2013-05-12 08:07:00,70.9,67.5,29.82,NW,315,3.5,3.5,89,0.00,CLR,,0.00,WeatherDisplay:10.37,2013-05-12 12:07:00,
2013-05-12 08:12:00,71.2,67.5,29.82,NNW,338,4.0,4.0,88,0.00,CLR,,0.00,WeatherDisplay:10.37,2013-05-12 12:12:00,
2013-05-12 08:17:00,71.4,67.3,29.82,NW,315,6.9,6.9,87,0.00,CLR,,0.00,WeatherDisplay:10.37,2013-05-12 12:17:00,
2013-05-12 08:22:00,72.1,67.7,29.82,WNW,292,2.3,2.3,86,0.00,CLR,,0.00,WeatherDisplay:10.37,2013-05-12 12:22:00,
2013-05-12 08:27:00,72.7,67.9,29.82,WNW,292,5.8,5.8,85,0.00,CLR,,0.00,WeatherDisplay:10.37,2013-05-12 12:27:00,
2013-05-12 08:32:00,72.7,67.6,29.82,WNW,292,5.8,5.8,84,0.00,CLR,,0.00,WeatherDisplay:10.37,2013-05-12 12:32:00,
2013-05-12 08:37:00,73.4,67.9,29.82,West,270,4.0,4.0,83,0.00,CLR,,0.00,WeatherDisplay:10.37,2013-05-12 12:37:00,
2013-05-12 08:42:00,73.6,67.4,29.82,NW,315,6.9,6.9,81,0.00,CLR,,0.00,WeatherDisplay:10.37,2013-05-12 12:42:00,
2013-05-12 08:47:00,74.1,67.2,29.82,WNW,292,5.8,5.8,79,0.00,CLR,,0.00,WeatherDisplay:10.37,2013-05-12 12:47:00,
2013-05-12 08:52:00,75.4,66.9,29.82,NNW,338,7.9,7.9,75,0.00,CLR,,0.00,WeatherDisplay:10.37,2013-05-12 12:52:00,
2013-05-12 08:57:00,74.7,67.0,29.82,NW,315,4.6,4.6,77,0.00,CLR,,0.00,WeatherDisplay:10.37,2013-05-12 12:57:00,
2013-05-12 09:02:00,74.1,66.8,29.82,NNW,338,4.6,4.6,78,0.00,CLR,,0.00,WeatherDisplay:10.37,2013-05-12 13:02:00,
2013-05-12 09:07:00,74.7,66.6,29.82,WNW,292,9.2,9.2,76,0.00,CLR,,0.00,WeatherDisplay:10.37,2013-05-12 13:07:00,
2013-05-12 09:12:00,75.0,66.1,29.82,NNW,338,6.9,6.9,74,0.00,CLR,,0.00,WeatherDisplay:10.37,2013-05-12 13:12:00,
2013-05-12 09:17:00,75.0,66.1,29.83,NW,315,5.8,5.8,74,0.00,CLR,,0.00,WeatherDisplay:10.37,2013-05-12 13:17:00,
2013-05-12 09:22:00,74.3,65.9,29.83,WNW,292,5.8,5.8,75,0.00,CLR,,0.00,WeatherDisplay:10.37,2013-05-12 13:22:00,
2013-05-12 09:27:00,74.3,65.9,29.83,NNW,338,3.5,3.5,75,0.00,CLR,,0.00,WeatherDisplay:10.37,2013-05-12 13:27:00,
2013-05-12 09:32:00,73.9,65.5,29.83,NE,45,6.9,6.9,75,0.00,CLR,,0.00,WeatherDisplay:10.37,2013-05-12 13:32:00,
2013-05-12 09:37:00,73.8,65.8,29.84,WNW,292,6.9,6.9,76,0.00,CLR,,0.00,WeatherDisplay:10.37,2013-05-12 13:37:00,
2013-05-12 09:42:00,74.1,66.4,29.84,NNW,338,6.9,6.9,77,0.00,CLR,,0.00,WeatherDisplay:10.37,2013-05-12 13:42:00,
2013-05-12 09:47:00,76.1,66.4,29.84,NNE,22,6.3,6.3,72,0.00,CLR,,0.00,WeatherDisplay:10.37,2013-05-12 13:47:00,
2013-05-12 09:52:00,76.3,66.2,29.83,North,360,7.9,7.9,71,0.00,CLR,,0.00,WeatherDisplay:10.37,2013-05-12 13:52:00,
2013-05-12 09:57:00,74.5,66.1,29.83,NE,45,6.9,6.9,75,0.00,CLR,,0.00,WeatherDisplay:10.37,2013-05-12 13:57:00,
2013-05-12 10:02:00,75.7,66.8,29.83,NNW,338,4.6,4.6,74,0.00,CLR,,0.00,WeatherDisplay:10.37,2013-05-12 14:02:00,
2013-05-12 10:07:00,74.8,65.6,29.83,NW,315,6.9,6.9,73,0.00,CLR,,0.00,WeatherDisplay:10.37,2013-05-12 14:07:00,
2013-05-12 10:12:00,75.4,65.7,29.83,NNW,338,5.6,5.6,72,0.00,CLR,,0.00,WeatherDisplay:10.37,2013-05-12 14:12:00,
2013-05-12 10:17:00,76.3,65.8,29.84,NNW,338,6.9,6.9,70,0.00,CLR,,0.00,WeatherDisplay:10.37,2013-05-12 14:17:00,
2013-05-12 10:22:00,75.6,65.5,29.84,NNE,22,6.9,6.9,71,0.00,CLR,,0.00,WeatherDisplay:10.37,2013-05-12 14:22:00,
2013-05-12 10:27:00,78.3,66.4,29.84,East,90,5.6,5.6,67,0.00,CLR,,0.00,WeatherDisplay:10.37,2013-05-12 14:27:00,
2013-05-12 10:33:00,77.2,64.5,29.84,WNW,292,9.2,9.2,65,0.00,CLR,,0.00,WeatherDisplay:10.37,2013-05-12 14:33:00,
2013-05-12 10:38:00,77.5,63.9,29.84,NNW,338,5.8,5.8,63,0.00,CLR,,0.00,WeatherDisplay:10.37,2013-05-12 14:38:00,
2013-05-12 10:43:00,78.3,64.2,29.84,NNE,22,7.1,7.1,62,0.00,CLR,,0.00,WeatherDisplay:10.37,2013-05-12 14:43:00,
2013-05-12 10:48:00,76.3,64.1,29.84,NW,315,5.8,5.8,66,0.00,CLR,,0.00,WeatherDisplay:10.37,2013-05-12 14:48:00,
2013-05-12 10:53:00,76.1,63.9,29.84,NE,45,6.9,6.9,66,0.00,CLR,,0.00,WeatherDisplay:10.37,2013-05-12 14:53:00,
2013-05-12 10:58:00,77.2,64.1,29.84,NW,315,5.8,5.8,64,0.00,CLR,,0.00,WeatherDisplay:10.37,2013-05-12 14:58:00,
2013-05-12 11:03:00,77.5,64.4,29.84,NW,315,3.5,3.5,64,0.00,CLR,,0.00,WeatherDisplay:10.37,2013-05-12 15:03:00,
2013-05-12 11:08:00,77.5,63.9,29.84,NNW,338,3.5,3.5,63,0.00,CLR,,0.00,WeatherDisplay:10.37,2013-05-12 15:08:00,
2013-05-12 11:13:00,75.6,63.4,29.84,NW,315,4.6,4.6,66,0.00,CLR,,0.00,WeatherDisplay:10.37,2013-05-12 15:13:00,
2013-05-12 11:18:00,75.7,64.0,29.85,NW,315,3.5,3.5,67,0.00,CLR,,0.00,WeatherDisplay:10.37,2013-05-12 15:18:00,
2013-05-12 11:23:00,76.5,64.3,29.85,NW,315,4.8,4.8,66,0.00,CLR,,0.00,WeatherDisplay:10.37,2013-05-12 15:23:00,
2013-05-12 11:28:00,76.5,64.3,29.85,ENE,68,6.9,6.9,66,0.00,CLR,,0.00,WeatherDisplay:10.37,2013-05-12 15:28:00,
2013-05-12 11:33:00,76.5,63.9,29.85,NNW,338,5.8,5.8,65,0.00,CLR,,0.00,WeatherDisplay:10.37,2013-05-12 15:33:00,
2013-05-12 11:38:00,78.3,64.7,29.84,East,90,9.2,9.2,63,0.00,CLR,,0.00,WeatherDisplay:10.37,2013-05-12 15:38:00,
2013-05-12 11:43:00,78.4,63.4,29.84,WNW,292,4.6,4.6,60,0.00,CLR,,0.00,WeatherDisplay:10.37,2013-05-12 15:43:00,
2013-05-12 11:48:00,78.1,63.1,29.84,ENE,68,9.2,9.2,60,0.00,CLR,,0.00,WeatherDisplay:10.37,2013-05-12 15:48:00,
2013-05-12 11:53:00,77.5,63.9,29.84,ESE,112,7.1,7.1,63,0.00,CLR,,0.00,WeatherDisplay:10.37,2013-05-12 15:53:00,
2013-05-12 11:58:00,78.6,64.5,29.84,ENE,68,6.9,6.9,62,0.00,CLR,,0.00,WeatherDisplay:10.37,2013-05-12 15:58:00,
2013-05-12 12:03:00,78.1,62.1,29.84,NNW,338,8.1,8.1,58,0.00,CLR,,0.00,WeatherDisplay:10.37,2013-05-12 16:03:00,
2013-05-12 12:08:00,77.4,62.4,29.84,WNW,292,4.6,4.6,60,0.00,CLR,,0.00,WeatherDisplay:10.37,2013-05-12 16:08:00,
2013-05-12 12:13:00,77.9,62.4,29.85,NW,315,6.9,6.9,59,0.00,CLR,,0.00,WeatherDisplay:10.37,2013-05-12 16:13:00,
2013-05-12 12:18:00,77.4,62.9,29.85,WNW,292,3.5,3.5,61,0.00,CLR,,0.00,WeatherDisplay:10.37,2013-05-12 16:18:00,
2013-05-12 12:23:00,77.2,64.1,29.85,WNW,292,2.3,2.3,64,0.00,CLR,,0.00,WeatherDisplay:10.37,2013-05-12 16:23:00,
2013-05-12 12:28:00,78.8,63.3,29.84,West,270,3.5,3.5,59,0.00,CLR,,0.00,WeatherDisplay:10.37,2013-05-12 16:28:00,
2013-05-12 12:33:00,79.5,63.4,29.84,NW,315,3.5,3.5,58,0.00,CLR,,0.00,WeatherDisplay:10.37,2013-05-12 16:33:00,
2013-05-12 12:38:00,78.8,62.8,29.85,NW,315,4.6,4.6,58,0.00,CLR,,0.00,WeatherDisplay:10.37,2013-05-12 16:38:00,
2013-05-12 12:43:00,78.4,63.8,29.85,NNW,338,3.5,3.5,61,0.00,CLR,,0.00,WeatherDisplay:10.37,2013-05-12 16:43:00,
2013-05-12 12:48:00,78.1,63.6,29.85,South,180,3.5,3.5,61,0.00,CLR,,0.00,WeatherDisplay:10.37,2013-05-12 16:48:00,
2013-05-12 12:53:00,79.5,64.4,29.84,SW,225,2.3,2.3,60,0.00,CLR,,0.00,WeatherDisplay:10.37,2013-05-12 16:53:00,
2013-05-12 12:58:00,80.1,65.4,29.84,SW,225,2.3,2.3,61,0.00,CLR,,0.00,WeatherDisplay:10.37,2013-05-12 16:58:00,
2013-05-12 13:03:00,79.9,63.8,29.84,West,270,0.0,0.0,58,0.00,CLR,,0.00,WeatherDisplay:10.37,2013-05-12 17:03:00,
2013-05-12 13:08:00,78.6,64.0,29.84,West,270,0.0,0.0,61,0.00,CLR,,0.00,WeatherDisplay:10.37,2013-05-12 17:08:00,
2013-05-12 13:13:00,77.7,66.3,29.84,West,270,6.9,6.9,68,0.00,CLR,,0.00,WeatherDisplay:10.37,2013-05-12 17:13:00,
2013-05-12 13:18:00,78.1,65.8,29.84,West,270,3.5,3.5,66,0.00,CLR,,0.00,WeatherDisplay:10.37,2013-05-12 17:18:00,
2013-05-12 13:23:00,77.9,65.6,29.84,WSW,248,4.0,4.0,66,0.00,CLR,,0.00,WeatherDisplay:10.37,2013-05-12 17:23:00,
2013-05-12 13:28:00,77.7,65.4,29.84,WSW,248,3.5,3.5,66,0.00,CLR,,0.00,WeatherDisplay:10.37,2013-05-12 17:28:00,
2013-05-12 13:33:00,77.9,65.6,29.84,West,270,3.5,3.5,66,0.00,CLR,,0.00,WeatherDisplay:10.37,2013-05-12 17:33:00,
2013-05-12 13:38:00,77.4,65.6,29.84,SW,225,3.5,3.5,67,0.00,CLR,,0.00,WeatherDisplay:10.37,2013-05-12 17:38:00,
2013-05-12 13:43:00,78.8,65.6,29.84,SW,225,3.5,3.9,64,0.00,CLR,,0.00,WeatherDisplay:10.37,2013-05-12 17:43:00,
2013-05-12 13:48:00,79.9,66.2,29.84,West,270,5.8,5.8,63,0.00,CLR,,0.00,WeatherDisplay:10.37,2013-05-12 17:48:00,
2013-05-12 13:53:00,77.0,65.6,29.84,WSW,248,3.5,3.5,68,0.00,CLR,,0.00,WeatherDisplay:10.37,2013-05-12 17:53:00,
2013-05-12 13:58:00,78.3,65.6,29.84,WSW,248,4.6,4.6,65,0.00,CLR,,0.00,WeatherDisplay:10.37,2013-05-12 17:58:00,
2013-05-12 14:03:00,80.6,66.8,29.84,WSW,248,4.0,4.0,63,0.00,CLR,,0.00,WeatherDisplay:10.37,2013-05-12 18:03:00,
2013-05-12 14:08:00,78.4,66.1,29.84,SW,225,4.0,4.0,66,0.00,CLR,,0.00,WeatherDisplay:10.37,2013-05-12 18:08:00,
2013-05-12 14:13:00,78.6,66.7,29.84,WSW,248,5.8,5.8,67,0.00,CLR,,0.00,WeatherDisplay:10.37,2013-05-12 18:13:00,
2013-05-12 14:18:00,78.4,65.2,29.84,West,270,3.5,3.6,64,0.00,CLR,,0.00,WeatherDisplay:10.37,2013-05-12 18:18:00,
2013-05-12 14:23:00,79.6,64.9,29.84,WSW,248,4.8,4.8,61,0.00,CLR,,0.00,WeatherDisplay:10.37,2013-05-12 18:23:00,
2013-05-12 14:28:00,77.7,65.9,29.84,West,270,5.8,5.8,67,0.00,CLR,,0.00,WeatherDisplay:10.37,2013-05-12 18:28:00,
2013-05-12 14:33:00,78.4,66.1,29.84,West,270,0.0,0.0,66,0.00,CLR,,0.00,WeatherDisplay:10.37,2013-05-12 18:33:00,
2013-05-12 14:38:00,78.8,66.9,29.84,WSW,248,3.5,3.5,67,0.00,CLR,,0.00,WeatherDisplay:10.37,2013-05-12 18:38:00,
2013-05-12 14:43:00,79.3,66.5,29.84,West,270,4.8,4.8,65,0.00,CLR,,0.00,WeatherDisplay:10.37,2013-05-12 18:43:00,
2013-05-12 14:48:00,78.4,66.5,29.84,SW,225,4.0,4.0,67,0.00,CLR,,0.00,WeatherDisplay:10.37,2013-05-12 18:48:00,
2013-05-12 14:53:00,79.5,66.7,29.84,SW,225,5.8,5.8,65,0.00,CLR,,0.00,WeatherDisplay:10.37,2013-05-12 18:53:00,
2013-05-12 14:58:00,79.2,66.4,29.84,WSW,248,4.6,4.6,65,0.00,CLR,,0.00,WeatherDisplay:10.37,2013-05-12 18:58:00,
2013-05-12 15:03:00,79.3,66.5,29.84,SW,225,3.5,3.5,65,0.00,CLR,,0.00,WeatherDisplay:10.37,2013-05-12 19:03:00,
2013-05-12 15:08:00,79.7,66.0,29.84,SW,225,8.1,8.1,63,0.00,CLR,,0.00,WeatherDisplay:10.37,2013-05-12 19:08:00,
2013-05-12 15:13:00,79.2,65.5,29.84,WSW,248,5.8,5.8,63,0.00,CLR,,0.00,WeatherDisplay:10.37,2013-05-12 19:13:00,
2013-05-12 15:18:00,79.2,66.9,29.83,SW,225,3.5,3.5,66,0.00,CLR,,0.00,WeatherDisplay:10.37,2013-05-12 19:18:00,
2013-05-12 15:23:00,78.4,65.7,29.83,ESE,112,3.5,3.7,65,0.00,CLR,,0.00,WeatherDisplay:10.37,2013-05-12 19:23:00,
2013-05-12 15:28:00,79.2,66.0,29.83,West,270,5.8,5.8,64,0.00,CLR,,0.00,WeatherDisplay:10.37,2013-05-12 19:28:00,
2013-05-12 15:33:00,78.4,67.0,29.83,SSE,158,3.5,3.5,68,0.00,CLR,,0.00,WeatherDisplay:10.37,2013-05-12 19:33:00,
2013-05-12 15:38:00,78.4,66.5,29.83,West,270,6.9,6.9,67,0.00,CLR,,0.00,WeatherDisplay:10.37,2013-05-12 19:38:00,
2013-05-12 15:43:00,79.0,63.9,29.83,West,270,4.6,4.6,60,0.00,CLR,,0.00,WeatherDisplay:10.37,2013-05-12 19:43:00,
2013-05-12 15:48:00,79.6,63.0,29.83,SW,225,3.5,3.5,57,0.00,CLR,,0.00,WeatherDisplay:10.37,2013-05-12 19:48:00,
2013-05-12 15:54:00,79.7,63.1,29.83,West,270,4.0,4.0,57,0.00,CLR,,0.00,WeatherDisplay:10.37,2013-05-12 19:54:00,
2013-05-12 15:59:00,79.7,64.1,29.83,West,270,4.6,4.6,59,0.00,CLR,,0.00,WeatherDisplay:10.37,2013-05-12 19:59:00,
2013-05-12 16:04:00,79.7,65.0,29.83,SSE,158,3.5,3.5,61,0.00,CLR,,0.00,WeatherDisplay:10.37,2013-05-12 20:04:00,
2013-05-12 16:09:00,80.1,65.9,29.83,South,180,6.9,6.9,62,0.00,CLR,,0.00,WeatherDisplay:10.37,2013-05-12 20:09:00,
2013-05-12 16:14:00,78.1,64.9,29.83,WSW,248,3.5,3.5,64,0.00,CLR,,0.00,WeatherDisplay:10.37,2013-05-12 20:14:00,
2013-05-12 16:19:00,77.9,64.7,29.83,SW,225,5.8,5.8,64,0.00,CLR,,0.00,WeatherDisplay:10.37,2013-05-12 20:19:00,
2013-05-12 16:24:00,77.2,65.0,29.83,West,270,3.5,3.5,66,0.00,CLR,,0.00,WeatherDisplay:10.37,2013-05-12 20:24:00,
2013-05-12 16:29:00,77.4,65.6,29.84,WSW,248,3.5,3.5,67,0.00,CLR,,0.00,WeatherDisplay:10.37,2013-05-12 20:29:00,
2013-05-12 16:34:00,77.4,66.0,29.84,WSW,248,5.8,5.8,68,0.00,CLR,,0.00,WeatherDisplay:10.37,2013-05-12 20:34:00,
2013-05-12 16:39:00,77.5,65.2,29.83,SSW,202,4.8,4.8,66,0.00,CLR,,0.00,WeatherDisplay:10.37,2013-05-12 20:39:00,
2013-05-12 16:44:00,77.7,65.4,29.83,South,180,3.5,3.5,66,0.00,CLR,,0.00,WeatherDisplay:10.37,2013-05-12 20:44:00,
2013-05-12 16:49:00,77.5,65.2,29.83,WSW,248,3.5,3.5,66,0.00,CLR,,0.00,WeatherDisplay:10.37,2013-05-12 20:49:00,
2013-05-12 16:54:00,76.8,65.4,29.84,West,270,3.5,3.5,68,0.00,CLR,,0.00,WeatherDisplay:10.37,2013-05-12 20:54:00,
2013-05-12 16:59:00,76.8,65.4,29.84,West,270,3.5,3.5,68,0.00,CLR,,0.00,WeatherDisplay:10.37,2013-05-12 20:59:00,
2013-05-12 17:04:00,76.6,65.2,29.84,West,270,6.9,6.9,68,0.00,CLR,,0.00,WeatherDisplay:10.37,2013-05-12 21:04:00,
2013-05-12 17:09:00,76.3,65.4,29.84,SW,225,4.6,4.6,69,0.00,CLR,,0.00,WeatherDisplay:10.37,2013-05-12 21:09:00,
2013-05-12 17:14:00,76.1,64.8,29.84,SSW,202,5.8,5.8,68,0.00,CLR,,0.00,WeatherDisplay:10.37,2013-05-12 21:14:00,
2013-05-12 17:19:00,76.1,65.2,29.84,West,270,4.0,4.0,69,0.00,CLR,,0.00,WeatherDisplay:10.37,2013-05-12 21:19:00,
2013-05-12 17:24:00,75.7,65.6,29.84,West,270,3.5,3.5,71,0.00,CLR,,0.00,WeatherDisplay:10.37,2013-05-12 21:24:00,
2013-05-12 17:29:00,75.7,65.6,29.84,West,270,4.0,4.0,71,0.00,CLR,,0.00,WeatherDisplay:10.37,2013-05-12 21:29:00,
2013-05-12 17:34:00,75.6,65.5,29.84,West,270,3.5,3.5,71,0.00,CLR,,0.00,WeatherDisplay:10.37,2013-05-12 21:34:00,
2013-05-12 17:39:00,75.4,65.7,29.85,SSE,158,4.8,4.8,72,0.00,CLR,,0.00,WeatherDisplay:10.37,2013-05-12 21:39:00,
2013-05-12 17:44:00,75.2,65.9,29.85,SW,225,3.5,3.5,73,0.00,CLR,,0.00,WeatherDisplay:10.37,2013-05-12 21:44:00,
2013-05-12 17:49:00,74.8,65.6,29.85,SW,225,3.5,3.5,73,0.00,CLR,,0.00,WeatherDisplay:10.37,2013-05-12 21:49:00,
2013-05-12 17:54:00,74.8,65.6,29.85,WSW,248,3.5,3.5,73,0.00,CLR,,0.00,WeatherDisplay:10.37,2013-05-12 21:54:00,
2013-05-12 17:59:00,74.1,64.9,29.85,WSW,248,4.6,4.6,73,0.00,CLR,,0.00,WeatherDisplay:10.37,2013-05-12 21:59:00,
2013-05-12 18:04:00,73.9,65.1,29.85,WSW,248,3.5,3.5,74,0.00,CLR,,0.00,WeatherDisplay:10.37,2013-05-12 22:04:00,
2013-05-12 18:09:00,74.1,65.3,29.85,WSW,248,3.5,3.5,74,0.00,CLR,,0.00,WeatherDisplay:10.37,2013-05-12 22:09:00,
2013-05-12 18:14:00,74.1,65.7,29.85,WSW,248,0.0,0.0,75,0.00,CLR,,0.00,WeatherDisplay:10.37,2013-05-12 22:14:00,
2013-05-12 18:19:00,73.8,65.8,29.85,WSW,248,0.0,0.0,76,0.00,CLR,,0.00,WeatherDisplay:10.37,2013-05-12 22:19:00,
2013-05-12 18:24:00,73.8,65.8,29.85,South,180,3.5,3.5,76,0.00,CLR,,0.00,WeatherDisplay:10.37,2013-05-12 22:24:00,
2013-05-12 18:29:00,73.8,65.8,29.86,SSW,202,2.3,2.3,76,0.00,CLR,,0.00,WeatherDisplay:10.37,2013-05-12 22:29:00,
2013-05-12 18:34:00,73.6,65.2,29.86,SSW,202,0.0,0.0,75,0.00,CLR,,0.00,WeatherDisplay:10.37,2013-05-12 22:34:00,
2013-05-12 18:39:00,73.8,65.4,29.87,South,180,2.3,2.3,75,0.00,CLR,,0.00,WeatherDisplay:10.37,2013-05-12 22:39:00,
2013-05-12 18:44:00,73.9,65.1,29.87,SW,225,4.0,4.0,74,0.00,CLR,,0.00,WeatherDisplay:10.37,2013-05-12 22:44:00,
2013-05-12 18:49:00,73.8,65.4,29.87,SW,225,2.3,2.3,75,0.00,CLR,,0.00,WeatherDisplay:10.37,2013-05-12 22:49:00,
2013-05-12 18:54:00,73.4,64.6,29.87,SSW,202,4.8,4.8,74,0.00,CLR,,0.00,WeatherDisplay:10.37,2013-05-12 22:54:00,
2013-05-12 18:59:00,73.4,64.6,29.87,SSW,202,2.3,2.3,74,0.00,CLR,,0.00,WeatherDisplay:10.37,2013-05-12 22:59:00,
2013-05-12 19:04:00,73.0,64.6,29.87,SSW,202,0.0,0.0,75,0.00,CLR,,0.00,WeatherDisplay:10.37,2013-05-12 23:04:00,
2013-05-12 19:09:00,72.9,64.5,29.87,SSW,202,0.0,0.0,75,0.00,CLR,,0.00,WeatherDisplay:10.37,2013-05-12 23:09:00,
2013-05-12 19:14:00,72.5,64.1,29.88,SSW,202,0.0,0.0,75,0.00,CLR,,0.00,WeatherDisplay:10.37,2013-05-12 23:14:00,
2013-05-12 19:19:00,72.1,63.7,29.88,SSW,202,0.0,0.0,75,0.00,CLR,,0.00,WeatherDisplay:10.37,2013-05-12 23:19:00,
2013-05-12 19:24:00,72.0,63.6,29.88,SSW,202,0.0,0.0,75,0.00,CLR,,0.00,WeatherDisplay:10.37,2013-05-12 23:24:00,
2013-05-12 19:29:00,71.6,63.6,29.88,SSW,202,0.0,0.4,76,0.00,CLR,,0.00,WeatherDisplay:10.37,2013-05-12 23:29:00,
2013-05-12 19:34:00,71.2,61.7,29.88,SSW,202,0.0,0.0,72,0.00,CLR,,0.00,WeatherDisplay:10.37,2013-05-12 23:34:00,
2013-05-12 19:39:00,70.7,61.6,29.89,SSW,202,0.0,0.0,73,0.00,CLR,,0.00,WeatherDisplay:10.37,2013-05-12 23:39:00,
2013-05-12 19:44:00,70.5,61.8,29.89,SSW,202,0.0,0.0,74,0.00,CLR,,0.00,WeatherDisplay:10.37,2013-05-12 23:44:00,
2013-05-12 19:49:00,70.2,62.3,29.89,SSW,202,0.0,0.0,76,0.00,CLR,,0.00,WeatherDisplay:10.37,2013-05-12 23:49:00,
2013-05-12 19:54:00,70.2,62.6,29.89,SSW,202,0.0,0.0,77,0.00,CLR,,0.00,WeatherDisplay:10.37,2013-05-12 23:54:00,
2013-05-12 19:59:00,69.8,62.6,29.89,SSW,202,0.0,0.0,78,0.00,CLR,,0.00,WeatherDisplay:10.37,2013-05-12 23:59:00,
2013-05-12 20:04:00,69.6,62.8,29.89,SSW,202,0.0,0.0,79,0.00,CLR,,0.00,WeatherDisplay:10.37,2013-05-13 00:04:00,
2013-05-12 20:09:00,69.3,62.5,29.89,SSW,202,0.0,0.0,79,0.00,CLR,,0.00,WeatherDisplay:10.37,2013-05-13 00:09:00,
2013-05-12 20:14:00,69.1,61.9,29.89,SSW,202,0.0,0.0,78,0.00,CLR,,0.00,WeatherDisplay:10.37,2013-05-13 00:14:00,
2013-05-12 20:19:00,68.7,60.5,29.90,SSW,202,0.0,0.0,75,0.00,CLR,,0.00,WeatherDisplay:10.37,2013-05-13 00:19:00,
2013-05-12 20:24:00,68.5,61.4,29.90,SSW,202,0.0,0.0,78,0.00,CLR,,0.00,WeatherDisplay:10.37,2013-05-13 00:24:00,
2013-05-12 20:29:00,68.2,60.7,29.75,SSW,202,0.0,-999.0,77,-99.99,,,0.00,Acu-Link.com,2013-05-13 00:29:00,
2013-05-12 20:34:00,68.0,60.2,29.91,SSW,202,0.0,0.0,76,0.00,CLR,,0.00,WeatherDisplay:10.37,2013-05-13 00:34:00,
2013-05-12 20:39:00,67.6,58.2,29.92,SSW,202,0.0,0.0,72,0.00,CLR,,0.00,WeatherDisplay:10.37,2013-05-13 00:39:00,
2013-05-12 20:44:00,67.3,58.7,29.92,SSW,202,0.0,0.0,74,0.00,CLR,,0.00,WeatherDisplay:10.37,2013-05-13 00:44:00,
2013-05-12 20:49:00,67.1,57.0,29.92,SSW,202,0.0,0.0,70,0.00,CLR,,0.00,WeatherDisplay:10.37,2013-05-13 00:49:00,
2013-05-12 20:54:00,66.7,57.4,29.93,SSW,202,0.0,0.0,72,0.00,CLR,,0.00,WeatherDisplay:10.37,2013-05-13 00:54:00,
2013-05-12 20:59:00,66.7,57.0,29.93,SSW,202,0.0,0.0,71,0.00,CLR,,0.00,WeatherDisplay:10.37,2013-05-13 00:59:00,
2013-05-12 21:04:00,66.2,56.1,29.93,SSW,202,0.0,0.0,70,0.00,CLR,,0.00,WeatherDisplay:10.37,2013-05-13 01:04:00,
2013-05-12 21:09:00,66.0,57.1,29.93,SSW,202,0.0,0.0,73,0.00,CLR,,0.00,WeatherDisplay:10.37,2013-05-13 01:09:00,
2013-05-12 21:14:00,65.8,56.9,29.94,SSW,202,0.0,0.0,73,0.00,CLR,,0.00,WeatherDisplay:10.37,2013-05-13 01:14:00,
2013-05-12 21:19:00,65.7,56.8,29.94,SSW,202,0.0,0.0,73,0.00,CLR,,0.00,WeatherDisplay:10.37,2013-05-13 01:19:00,
2013-05-12 21:24:00,65.5,57.0,29.94,SSW,202,0.0,0.0,74,0.00,CLR,,0.00,WeatherDisplay:10.37,2013-05-13 01:24:00,
2013-05-12 21:29:00,65.3,56.8,29.94,SSW,202,0.0,0.0,74,0.00,CLR,,0.00,WeatherDisplay:10.37,2013-05-13 01:29:00,
2013-05-12 21:34:00,65.3,56.8,29.94,SSW,202,0.0,0.0,74,0.00,CLR,,0.00,WeatherDisplay:10.37,2013-05-13 01:34:00,
2013-05-12 21:39:00,64.9,56.8,29.95,SSW,202,0.0,0.0,75,0.00,CLR,,0.00,WeatherDisplay:10.37,2013-05-13 01:39:00,
2013-05-12 21:44:00,64.9,56.8,29.95,South,180,0.0,0.0,75,0.00,CLR,,0.00,WeatherDisplay:10.37,2013-05-13 01:44:00,
2013-05-12 21:49:00,64.8,55.6,29.95,South,180,0.0,0.0,72,0.00,CLR,,0.00,WeatherDisplay:10.37,2013-05-13 01:49:00,
2013-05-12 21:55:00,64.8,56.7,29.95,South,180,0.0,0.0,75,0.00,CLR,,0.00,WeatherDisplay:10.37,2013-05-13 01:55:00,
2013-05-12 22:00:00,64.8,56.3,29.95,South,180,0.0,0.0,74,0.00,CLR,,0.00,WeatherDisplay:10.37,2013-05-13 02:00:00,
2013-05-12 22:05:00,64.9,57.9,29.96,South,180,0.0,0.0,78,0.00,CLR,,0.00,WeatherDisplay:10.37,2013-05-13 02:05:00,
2013-05-12 22:10:00,64.8,57.4,29.96,South,180,0.0,0.0,77,0.00,CLR,,0.00,WeatherDisplay:10.37,2013-05-13 02:10:00,
2013-05-12 22:15:00,64.8,55.6,29.96,West,270,0.0,0.0,72,0.00,CLR,,0.00,WeatherDisplay:10.37,2013-05-13 02:15:00,
2013-05-12 22:20:00,65.1,55.1,29.96,NNW,338,2.3,0.0,70,0.00,CLR,,0.00,WeatherDisplay:10.37,2013-05-13 02:20:00,
2013-05-12 22:25:00,65.5,55.1,29.96,NW,315,2.3,2.3,69,0.00,CLR,,0.00,WeatherDisplay:10.37,2013-05-13 02:25:00,
2013-05-12 22:30:00,65.8,54.1,29.97,North,360,3.5,3.5,66,0.00,CLR,,0.00,WeatherDisplay:10.37,2013-05-13 02:30:00,
2013-05-12 22:35:00,66.4,53.8,29.97,NNE,22,6.9,6.9,64,0.00,CLR,,0.00,WeatherDisplay:10.37,2013-05-13 02:35:00,
2013-05-12 22:40:00,66.2,52.3,29.97,NNW,338,4.6,4.6,61,0.00,CLR,,0.00,WeatherDisplay:10.37,2013-05-13 02:40:00,
2013-05-12 22:45:00,66.6,52.3,29.97,NNE,22,6.3,6.3,60,0.00,CLR,,0.00,WeatherDisplay:10.37,2013-05-13 02:45:00,
2013-05-12 22:50:00,66.7,51.9,29.97,NNE,22,4.8,5.0,59,0.00,CLR,,0.00,WeatherDisplay:10.37,2013-05-13 02:50:00,
2013-05-12 22:55:00,66.7,50.5,29.98,NNE,22,6.9,6.9,56,0.00,CLR,,0.00,WeatherDisplay:10.37,2013-05-13 02:55:00,
2013-05-12 23:00:00,66.7,50.5,29.98,NNW,338,6.9,6.9,56,0.00,CLR,,0.00,WeatherDisplay:10.37,2013-05-13 03:00:00,
2013-05-12 23:05:00,66.7,50.5,29.98,NNW,338,4.0,4.0,56,0.00,CLR,,0.00,WeatherDisplay:10.37,2013-05-13 03:05:00,
2013-05-12 23:10:00,66.7,50.5,29.98,North,360,5.8,5.8,56,0.00,CLR,,0.00,WeatherDisplay:10.37,2013-05-13 03:10:00,
2013-05-12 23:15:00,66.7,50.5,29.98,NNW,338,6.9,6.9,56,0.00,CLR,,0.00,WeatherDisplay:10.37,2013-05-13 03:15:00,
2013-05-12 23:20:00,66.7,51.5,29.98,ENE,68,3.5,3.5,58,0.00,CLR,,0.00,WeatherDisplay:10.37,2013-05-13 03:20:00,
2013-05-12 23:25:00,66.6,51.4,29.98,WSW,248,4.6,4.6,58,0.00,CLR,,0.00,WeatherDisplay:10.37,2013-05-13 03:25:00,
2013-05-12 23:30:00,66.6,51.8,29.98,NNE,22,9.2,9.2,59,0.00,CLR,,0.00,WeatherDisplay:10.37,2013-05-13 03:30:00,
2013-05-12 23:35:00,66.6,51.8,29.98,ESE,112,9.4,9.4,59,0.00,CLR,,0.00,WeatherDisplay:10.37,2013-05-13 03:35:00,
2013-05-12 23:40:00,66.6,52.3,29.98,East,90,9.2,9.2,60,0.00,CLR,,0.00,WeatherDisplay:10.37,2013-05-13 03:40:00,
2013-05-12 23:45:00,66.6,51.8,29.98,NW,315,9.2,9.2,59,0.00,CLR,,0.00,WeatherDisplay:10.37,2013-05-13 03:45:00,
2013-05-12 23:50:00,66.6,51.8,29.98,ESE,112,7.1,7.1,59,0.00,CLR,,0.00,WeatherDisplay:10.37,2013-05-13 03:50:00,
2013-05-12 23:55:00,66.6,51.4,29.98,NNE,22,4.6,4.6,58,0.00,CLR,,0.00,WeatherDisplay:10.37,2013-05-13 03:55:00,